Terminal Aerodrome Forecast
Issued by NWS

Home | Current Version | Previous Version | Text Only | Print | Product List | Glossary On
Versions: 1 2 3 4 5 6 7 8 9 10 11 12 13 14 15 16 17 18 19 20 21 22 23 24 25 26 27 28 29 30 31 32 33 34 35 36 37 38 39 40 41 42 43 44 45 46 47 48 49 50
000
FTUS43 KMKX 280520
TAFUES
TAF
KUES 280520Z 2806/2906 00000KT P6SM VCSH SCT040 OVC100
     FM281100 00000KT 4SM -SHRA BR OVC040
     FM281400 32005KT P6SM VCSH OVC020
     FM281800 32006KT P6SM VCSH BKN040
     FM282200 27008KT P6SM SCT050=

USA.gov is the U.S. government's official web portal to all federal, state and local government web resources and services.